createdAt,value
2023-04-10T00:02:04.575Z,100957.11
2023-04-10T00:04:40.750Z,100957.05
2023-04-10T00:07:12.160Z,100953.81
2023-04-10T00:09:41.520Z,100952.36
2023-04-10T00:12:18.426Z,100953.98
2023-04-10T00:14:47.184Z,100953.95
2023-04-10T00:17:16.390Z,100950.35
2023-04-10T00:19:45.063Z,100949.95
2023-04-10T00:22:18.771Z,100948.02
2023-04-10T00:24:47.252Z,100940.89
2023-04-10T00:27:16.449Z,100935.44
2023-04-10T00:29:45.754Z,100935.86
2023-04-10T00:32:25.841Z,100932.63
2023-04-10T00:34:58.587Z,100934.29
2023-04-10T00:37:27.795Z,100931.65
2023-04-10T00:39:56.404Z,100931.27
2023-04-10T00:42:25.397Z,100931.63
2023-04-10T00:44:54.794Z,100931.09
2023-04-10T00:47:27.810Z,100936.13
2023-04-10T00:49:56.769Z,100933.81
2023-04-10T00:52:25.747Z,100930.95
2023-04-10T00:54:55.243Z,100930.50
2023-04-10T00:57:23.617Z,100934.33
2023-04-10T00:59:57.331Z,100936.59
2023-04-10T01:02:26.825Z,100932.88
2023-04-10T01:04:56.104Z,100933.23
2023-04-10T01:07:31.364Z,100927.04
2023-04-10T01:10:07.228Z,100926.48
2023-04-10T01:13:01.103Z,100926.89
2023-04-10T01:15:29.920Z,100926.23
2023-04-10T01:18:03.158Z,100925.52
2023-04-10T01:20:33.351Z,100923.34
2023-04-10T01:23:21.043Z,100923.91
2023-04-10T01:25:52.172Z,100926.02
2023-04-10T01:28:23.520Z,100928.15
2023-04-10T01:30:54.071Z,100926.97
2023-04-10T01:33:23.555Z,100930.58
2023-04-10T01:35:53.864Z,100929.77
2023-04-10T01:38:22.699Z,100928.02
2023-04-10T01:40:52.912Z,100934.96
2023-04-10T01:43:28.439Z,100933.23
2023-04-10T01:45:57.747Z,100935.25
2023-04-10T01:48:26.945Z,100934.63
2023-04-10T01:50:55.753Z,100936.61
2023-04-10T01:53:24.841Z,100934.64
2023-04-10T01:55:54.053Z,100932.46
2023-04-10T01:58:22.828Z,100933.63
2023-04-10T02:00:55.919Z,100933.08
2023-04-10T02:03:26.843Z,100934.95
2023-04-10T02:05:57.689Z,100930.95
2023-04-10T02:08:32.241Z,100931.30
2023-04-10T02:11:08.056Z,100933.39
2023-04-10T02:13:36.435Z,100931.49
2023-04-10T02:16:05.402Z,100932.41
2023-04-10T02:18:37.238Z,100934.80
2023-04-10T02:21:06.289Z,100937.27
2023-04-10T02:23:35.982Z,100939.00
2023-04-10T02:26:08.891Z,100941.38
2023-04-10T02:28:41.754Z,100942.03
2023-04-10T02:31:10.325Z,100943.50
2023-04-10T02:33:40.063Z,100946.38
2023-04-10T02:36:09.382Z,100950.23
2023-04-10T02:38:38.899Z,100951.91
2023-04-10T02:41:07.866Z,100952.42
2023-04-10T02:43:37.160Z,100952.08
2023-04-10T02:46:06.553Z,100949.89
2023-04-10T02:48:42.779Z,100949.52
2023-04-10T02:51:12.043Z,100951.64
2023-04-10T02:53:40.924Z,100948.35
2023-04-10T02:56:12.355Z,100949.27
2023-04-10T02:58:45.589Z,100948.98
2023-04-10T03:01:14.335Z,100950.24
2023-04-10T03:03:45.547Z,100950.13
2023-04-10T03:06:19.092Z,100949.10
2023-04-10T03:08:48.175Z,100949.41
2023-04-10T03:11:16.861Z,100948.33
2023-04-10T03:13:45.373Z,100946.09
2023-04-10T03:16:16.140Z,100946.00
2023-04-10T03:18:45.582Z,100933.38
2023-04-10T03:21:14.988Z,100932.38
2023-04-10T03:23:44.702Z,100932.56
2023-04-10T03:26:13.278Z,100935.65
2023-04-10T03:28:43.013Z,100933.74
2023-04-10T03:31:12.771Z,100932.64
2023-04-10T03:33:43.157Z,100932.19
2023-04-10T03:36:11.882Z,100932.55
2023-04-10T03:38:41.467Z,100927.81
2023-04-10T03:41:12.300Z,100923.91
2023-04-10T03:43:42.464Z,100921.16
2023-04-10T03:46:11.172Z,100922.91
2023-04-10T03:48:43.438Z,100924.02
2023-04-10T03:51:12.119Z,100921.53
2023-04-10T03:53:40.903Z,100922.73
2023-04-10T03:56:12.669Z,100921.61
2023-04-10T03:58:44.634Z,100922.45
2023-04-10T04:01:13.925Z,100920.08
2023-04-10T04:04:01.560Z,100920.17
2023-04-10T04:07:10.414Z,100920.88
2023-04-10T04:10:02.625Z,100922.98
2023-04-10T04:12:50.868Z,100916.57
2023-04-10T04:15:29.694Z,100920.83
2023-04-10T04:18:19.375Z,100926.16
2023-04-10T04:20:52.575Z,100927.05
2023-04-10T04:23:38.289Z,100927.98
2023-04-10T04:26:13.133Z,100929.10
2023-04-10T04:29:05.223Z,100927.77
2023-04-10T04:32:02.485Z,100931.28
2023-04-10T04:35:01.064Z,100926.55
2023-04-10T04:37:43.370Z,100930.81
2023-04-10T04:40:49.527Z,100930.00
2023-04-10T04:43:29.245Z,100926.02
2023-04-10T04:46:17.256Z,100924.88
2023-04-10T04:49:12.619Z,100919.65
2023-04-10T04:51:52.065Z,100922.05
2023-04-10T04:54:50.754Z,100921.86
2023-04-10T04:57:43.190Z,100922.15
2023-04-10T05:00:31.955Z,100925.98
2023-04-10T05:03:12.523Z,100926.64
2023-04-10T05:05:58.108Z,100926.69
2023-04-10T05:08:36.715Z,100929.83
2023-04-10T05:11:31.307Z,100928.36
2023-04-10T05:14:21.390Z,100934.10
2023-04-10T05:17:11.374Z,100937.16
2023-04-10T05:20:01.127Z,100938.25
2023-04-10T05:23:02.239Z,100940.45
2023-04-10T05:25:51.572Z,100935.31
2023-04-10T05:28:39.557Z,100930.58
2023-04-10T05:31:32.381Z,100926.46
2023-04-10T05:34:12.860Z,100926.59
2023-04-10T05:36:53.597Z,100925.02
2023-04-10T05:39:26.434Z,100923.48
2023-04-10T05:41:58.609Z,100925.64
2023-04-10T05:44:34.501Z,100928.99
2023-04-10T05:47:21.693Z,100924.97
2023-04-10T05:50:10.997Z,100926.29
2023-04-10T05:52:57.625Z,100928.86
2023-04-10T05:55:40.209Z,100926.86
2023-04-10T05:58:24.463Z,100928.39
2023-04-10T06:01:19.686Z,100927.23
2023-04-10T06:03:53.239Z,100931.89
2023-04-10T06:06:22.736Z,100929.21
2023-04-10T06:08:51.344Z,100926.61
2023-04-10T06:11:21.313Z,100927.50
2023-04-10T06:13:52.722Z,100931.56
2023-04-10T06:16:24.422Z,100929.52
2023-04-10T06:18:54.805Z,100925.61
2023-04-10T06:21:23.333Z,100928.70
2023-04-10T06:23:54.619Z,100927.48
2023-04-10T06:26:25.078Z,100931.08
2023-04-10T06:28:53.821Z,100930.46
2023-04-10T06:31:23.421Z,100933.34
2023-04-10T06:33:52.047Z,100930.09
2023-04-10T06:36:20.837Z,100931.44
2023-04-10T06:38:55.270Z,100931.60
2023-04-10T06:41:25.947Z,100928.96
2023-04-10T06:46:28.064Z,100924.27
2023-04-10T06:48:56.667Z,100924.30
2023-04-10T06:51:26.178Z,100919.27
2023-04-10T06:53:54.729Z,100918.25
2023-04-10T06:56:26.092Z,100916.75
2023-04-10T06:58:57.851Z,100909.43
2023-04-10T07:01:26.762Z,100912.13
2023-04-10T07:03:56.148Z,100913.95
2023-04-10T07:06:31.901Z,100910.33
2023-04-10T07:09:00.580Z,100908.34
2023-04-10T07:11:29.783Z,100910.30
2023-04-10T07:13:59.285Z,100915.09
2023-04-10T07:16:29.693Z,100911.89
2023-04-10T07:18:58.735Z,100905.55
2023-04-10T07:21:27.394Z,100907.99
2023-04-10T07:23:57.324Z,100906.27
2023-04-10T07:26:26.416Z,100902.21
2023-04-10T07:28:55.086Z,100910.77
2023-04-10T07:31:24.451Z,100903.44
2023-04-10T07:33:53.582Z,100908.14
2023-04-10T07:36:22.116Z,100906.32
2023-04-10T07:38:51.525Z,100906.75
2023-04-10T07:41:20.792Z,100899.02
2023-04-10T07:43:52.117Z,100899.75
2023-04-10T07:46:21.972Z,100892.48
2023-04-10T07:48:50.925Z,100888.44
2023-04-10T07:51:19.410Z,100884.59
2023-04-10T07:53:48.009Z,100879.73
2023-04-10T07:56:20.051Z,100877.86
2023-04-10T07:58:49.250Z,100870.64
2023-04-10T08:01:17.750Z,100875.80
2023-04-10T08:03:53.136Z,100872.60
2023-04-10T08:06:21.900Z,100872.21
2023-04-10T08:08:52.550Z,100873.67
2023-04-10T08:11:32.292Z,100873.92
2023-04-10T08:14:04.251Z,100867.17
2023-04-10T08:16:36.556Z,100862.62
2023-04-10T08:19:08.845Z,100857.52
2023-04-10T08:21:37.585Z,100858.98
2023-04-10T08:24:06.007Z,100858.91
2023-04-10T08:26:35.208Z,100856.46
2023-04-10T08:29:03.564Z,100857.53
2023-04-10T08:31:32.202Z,100854.27
2023-04-10T08:34:00.742Z,100854.59
2023-04-10T08:36:29.399Z,100853.75
2023-04-10T08:38:58.199Z,100852.70
2023-04-10T08:41:26.646Z,100850.73
2023-04-10T08:43:57.505Z,100847.48
2023-04-10T08:46:29.266Z,100838.10
2023-04-10T08:49:03.374Z,100835.16
2023-04-10T08:51:55.607Z,100833.48
2023-04-10T08:54:28.640Z,100826.45
2023-04-10T08:56:58.682Z,100837.16
2023-04-10T08:59:29.513Z,100834.16
2023-04-10T09:02:03.396Z,100825.22
2023-04-10T09:04:33.652Z,100827.07
2023-04-10T09:07:01.953Z,100825.99
2023-04-10T09:09:33.241Z,100820.60
2023-04-10T09:12:06.838Z,100816.93
2023-04-10T09:14:35.871Z,100819.91
2023-04-10T09:17:19.815Z,100815.45
2023-04-10T09:19:53.355Z,100812.21
2023-04-10T09:22:32.212Z,100806.13
2023-04-10T09:25:19.305Z,100801.87
2023-04-10T09:27:48.101Z,100803.73
2023-04-10T09:30:17.202Z,100803.20
2023-04-10T09:32:50.764Z,100802.13
2023-04-10T09:35:19.464Z,100799.69
2023-04-10T09:37:47.786Z,100797.88
2023-04-10T09:40:23.119Z,100794.01
2023-04-10T09:42:51.573Z,100791.63
2023-04-10T09:45:20.920Z,100792.70
2023-04-10T09:48:08.549Z,100794.38
2023-04-10T09:50:43.622Z,100798.04
2023-04-10T09:53:16.615Z,100793.80
2023-04-10T09:55:48.353Z,100786.41
2023-04-10T09:58:17.140Z,100791.11
2023-04-10T10:00:46.760Z,100786.59
2023-04-10T10:03:18.013Z,100780.15
2023-04-10T10:08:42.379Z,100773.45
2023-04-10T10:11:14.124Z,100769.13
2023-04-10T10:13:48.474Z,100768.02
2023-04-10T10:16:29.014Z,100769.84
2023-04-10T10:19:55.285Z,100765.17
2023-04-10T10:22:49.196Z,100759.03
2023-04-10T10:25:19.559Z,100762.07
2023-04-10T10:27:47.896Z,100762.96
2023-04-10T10:30:28.891Z,100761.11
2023-04-10T10:32:58.958Z,100753.16
2023-04-10T10:35:29.696Z,100755.32
2023-04-10T10:38:04.564Z,100745.58
2023-04-10T10:40:39.922Z,100741.03
2023-04-10T10:43:17.363Z,100738.14
2023-04-10T10:46:07.712Z,100732.29
2023-04-10T10:48:36.513Z,100730.22
2023-04-10T10:51:04.905Z,100729.83
2023-04-10T10:53:40.653Z,100727.39
2023-04-10T10:56:21.012Z,100721.33
2023-04-10T10:58:52.264Z,100719.90
2023-04-10T11:01:22.403Z,100722.36
2023-04-10T11:03:52.351Z,100718.27
2023-04-10T11:06:21.729Z,100712.86
2023-04-10T11:08:53.269Z,100708.65
2023-04-10T11:11:25.947Z,100706.42
2023-04-10T11:13:58.872Z,100700.19
2023-04-10T11:16:36.034Z,100695.15
2023-04-10T11:22:15.594Z,100687.65
2023-04-10T11:24:57.755Z,100690.38
2023-04-10T11:27:47.792Z,100686.34
2023-04-10T11:30:35.526Z,100681.21
2023-04-10T11:33:04.555Z,100679.36
2023-04-10T11:35:33.203Z,100666.30
2023-04-10T11:38:11.933Z,100672.73
2023-04-10T11:41:01.910Z,100669.45
2023-04-10T11:43:30.828Z,100671.33
2023-04-10T11:46:04.339Z,100658.43
2023-04-10T11:48:32.980Z,100652.45
2023-04-10T11:51:07.575Z,100644.63
2023-04-10T11:53:35.881Z,100647.65
2023-04-10T11:56:04.604Z,100651.02
2023-04-10T11:58:33.164Z,100645.95
2023-04-10T12:01:01.630Z,100644.34
2023-04-10T12:03:34.749Z,100640.38
2023-04-10T12:06:05.548Z,100633.02
2023-04-10T12:08:36.962Z,100631.45
2023-04-10T12:11:05.610Z,100636.17
2023-04-10T12:13:34.662Z,100630.91
2023-04-10T12:16:10.031Z,100625.30
2023-04-10T12:18:39.134Z,100634.56
2023-04-10T12:21:08.583Z,100630.40
2023-04-10T12:23:39.360Z,100623.09
2023-04-10T12:26:18.365Z,100620.06
2023-04-10T12:28:57.615Z,100620.73
2023-04-10T12:31:37.402Z,100619.31
2023-04-10T12:34:08.553Z,100615.99
2023-04-10T12:36:38.273Z,100619.98
2023-04-10T12:39:08.868Z,100620.05
2023-04-10T12:41:37.675Z,100619.17
2023-04-10T12:44:11.708Z,100618.23
2023-04-10T12:46:41.617Z,100611.25
2023-04-10T12:49:10.851Z,100613.71
2023-04-10T12:51:43.960Z,100610.19
2023-04-10T12:54:12.687Z,100611.86
2023-04-10T12:56:42.828Z,100608.11
2023-04-10T12:59:11.424Z,100606.50
2023-04-10T13:01:39.893Z,100603.52
2023-04-10T13:04:08.581Z,100603.77
2023-04-10T13:06:46.159Z,100598.48
2023-04-10T13:09:14.678Z,100599.90
2023-04-10T13:11:43.926Z,100599.68
2023-04-10T13:14:14.017Z,100597.42
2023-04-10T13:16:43.272Z,100593.15
2023-04-10T13:19:14.498Z,100594.52
2023-04-10T13:21:43.670Z,100588.95
2023-04-10T13:24:11.858Z,100579.17
2023-04-10T13:26:44.945Z,100581.08
2023-04-10T13:29:13.731Z,100578.65
2023-04-10T13:31:42.793Z,100581.73
2023-04-10T13:34:11.760Z,100579.25
2023-04-10T13:36:40.249Z,100577.00
2023-04-10T13:39:08.571Z,100577.08
2023-04-10T13:41:36.948Z,100579.92
2023-04-10T13:44:05.575Z,100575.55
2023-04-10T13:46:34.969Z,100570.30
2023-04-10T13:49:03.673Z,100566.25
2023-04-10T13:51:32.422Z,100564.73
2023-04-10T13:54:04.811Z,100571.27
2023-04-10T13:56:33.069Z,100572.65
2023-04-10T13:59:04.239Z,100574.28
2023-04-10T14:01:34.761Z,100571.83
2023-04-10T14:04:03.811Z,100567.35
2023-04-10T14:06:32.228Z,100566.58
2023-04-10T14:09:01.151Z,100567.67
2023-04-10T14:11:29.630Z,100568.00
2023-04-10T14:13:57.894Z,100569.82
2023-04-10T14:16:26.680Z,100576.58
2023-04-10T14:18:55.184Z,100577.83
2023-04-10T14:21:24.182Z,100571.38
2023-04-10T14:23:52.870Z,100569.95
2023-04-10T14:26:21.661Z,100568.70
2023-04-10T14:28:50.593Z,100566.86
2023-04-10T14:31:18.920Z,100565.85
2023-04-10T14:33:49.475Z,100566.02
2023-04-10T14:36:17.812Z,100565.15
2023-04-10T14:38:46.083Z,100568.58
2023-04-10T14:41:14.626Z,100565.44
2023-04-10T14:43:44.337Z,100562.56
2023-04-10T14:46:14.549Z,100558.71
2023-04-10T14:48:43.259Z,100558.14
2023-04-10T14:51:17.174Z,100557.35
2023-04-10T14:53:46.304Z,100552.79
2023-04-10T14:56:18.024Z,100554.81
2023-04-10T14:58:47.748Z,100550.52
2023-04-10T15:01:16.300Z,100549.68
2023-04-10T15:03:48.380Z,100551.66
2023-04-10T15:06:17.076Z,100549.98
2023-04-10T15:08:45.304Z,100554.18
2023-04-10T15:11:13.638Z,100549.85
2023-04-10T15:13:42.641Z,100548.92
2023-04-10T15:16:12.107Z,100548.09
2023-04-10T15:18:40.590Z,100548.23
2023-04-10T15:21:09.269Z,100548.91
2023-04-10T15:23:37.528Z,100550.30
2023-04-10T15:26:16.149Z,100551.77
2023-04-10T15:28:44.678Z,100553.86
2023-04-10T15:31:13.052Z,100557.13
2023-04-10T15:33:48.131Z,100554.83
2023-04-10T15:36:16.785Z,100551.59
2023-04-10T15:38:45.187Z,100548.23
2023-04-10T15:41:13.690Z,100550.09
2023-04-10T15:43:42.872Z,100549.89
2023-04-10T15:46:19.269Z,100550.94
2023-04-10T15:48:52.100Z,100546.80
2023-04-10T15:51:24.749Z,100550.91
2023-04-10T15:53:54.708Z,100551.41
2023-04-10T15:56:23.271Z,100548.61
2023-04-10T15:58:51.960Z,100548.48
2023-04-10T16:01:20.352Z,100548.01
2023-04-10T16:03:53.524Z,100546.61
2023-04-10T16:06:25.971Z,100544.96
2023-04-10T16:08:54.368Z,100543.97
2023-04-10T16:11:25.696Z,100544.45
2023-04-10T16:13:56.831Z,100544.25
2023-04-10T16:16:26.177Z,100543.27
2023-04-10T16:18:59.701Z,100539.90
2023-04-10T16:21:31.724Z,100535.90
2023-04-10T16:24:01.024Z,100536.30
2023-04-10T16:26:35.390Z,100534.95
2023-04-10T16:29:04.392Z,100535.63
2023-04-10T16:31:32.705Z,100538.70
2023-04-10T16:34:01.460Z,100543.13
2023-04-10T16:36:29.869Z,100544.36
2023-04-10T16:38:58.234Z,100546.85
2023-04-10T16:41:26.505Z,100547.11
2023-04-10T16:43:55.415Z,100543.33
2023-04-10T16:46:28.024Z,100545.45
2023-04-10T16:48:56.824Z,100542.22
2023-04-10T16:51:25.737Z,100541.45
2023-04-10T16:53:54.327Z,100545.44
2023-04-10T16:56:23.076Z,100542.11
2023-04-10T16:58:57.476Z,100545.38
2023-04-10T17:01:27.248Z,100547.33
2023-04-10T17:03:55.923Z,100543.14
2023-04-10T17:06:31.628Z,100543.80
2023-04-10T17:09:00.325Z,100544.45
2023-04-10T17:11:28.888Z,100539.25
2023-04-10T17:13:57.132Z,100541.85
2023-04-10T17:16:25.644Z,100542.15
2023-04-10T17:18:54.927Z,100541.59
2023-04-10T17:21:23.456Z,100540.77
2023-04-10T17:23:59.547Z,100544.19
2023-04-10T17:26:27.879Z,100546.32
2023-04-10T17:28:56.582Z,100544.03
2023-04-10T17:31:25.892Z,100549.30
2023-04-10T17:33:54.743Z,100548.02
2023-04-10T17:36:26.973Z,100553.88
2023-04-10T17:38:55.586Z,100551.27
2023-04-10T17:41:24.235Z,100551.59
2023-04-10T17:43:57.185Z,100555.77
2023-04-10T17:46:25.505Z,100551.77
2023-04-10T17:49:01.611Z,100553.21
2023-04-10T17:51:31.720Z,100550.11
2023-04-10T17:54:00.275Z,100548.09
2023-04-10T17:56:29.213Z,100549.33
2023-04-10T17:59:00.620Z,100549.30
2023-04-10T18:01:31.984Z,100546.50
2023-04-10T18:04:02.726Z,100542.77
2023-04-10T18:06:31.990Z,100546.92
2023-04-10T18:09:00.482Z,100541.29
2023-04-10T18:11:28.733Z,100542.27
2023-04-10T18:13:57.324Z,100540.30
2023-04-10T18:16:25.944Z,100535.09
2023-04-10T18:18:54.522Z,100534.86
2023-04-10T18:21:25.679Z,100534.12
2023-04-10T18:23:54.208Z,100535.60
2023-04-10T18:26:22.638Z,100535.33
2023-04-10T18:28:51.637Z,100531.63
2023-04-10T18:31:20.234Z,100524.73
2023-04-10T18:34:03.675Z,100523.73
2023-04-10T18:36:35.871Z,100524.35
2023-04-10T18:39:04.977Z,100523.76
2023-04-10T18:41:35.321Z,100524.98
2023-04-10T18:44:05.789Z,100521.51
2023-04-10T18:46:39.095Z,100521.23
2023-04-10T18:49:08.240Z,100519.41
2023-04-10T18:51:37.528Z,100516.64
2023-04-10T18:54:07.540Z,100516.75
2023-04-10T18:56:35.996Z,100514.88
2023-04-10T18:59:10.305Z,100512.63
2023-04-10T19:01:40.428Z,100513.23
2023-04-10T19:04:11.137Z,100512.73
2023-04-10T19:06:41.149Z,100511.44
2023-04-10T19:09:09.785Z,100515.73
2023-04-10T19:11:38.298Z,100514.98
2023-04-10T19:14:07.053Z,100511.20
2023-04-10T19:16:36.146Z,100508.39
2023-04-10T19:19:04.592Z,100510.23
2023-04-10T19:21:42.331Z,100508.27
2023-04-10T19:24:12.541Z,100509.74
2023-04-10T19:26:41.032Z,100515.48
2023-04-10T19:29:13.786Z,100513.52
2023-04-10T19:31:51.543Z,100513.08
2023-04-10T19:34:21.696Z,100515.59
2023-04-10T19:36:50.913Z,100511.40
2023-04-10T19:39:19.149Z,100509.66
2023-04-10T19:41:49.085Z,100504.17
2023-04-10T19:44:17.979Z,100503.55
2023-04-10T19:46:55.125Z,100501.04
2023-04-10T19:49:24.389Z,100496.91
2023-04-10T19:51:52.957Z,100499.58
2023-04-10T19:54:21.311Z,100498.70
2023-04-10T19:56:49.839Z,100500.18
2023-04-10T19:59:18.169Z,100498.46
2023-04-10T20:01:46.779Z,100495.80
2023-04-10T20:04:16.250Z,100491.23
2023-04-10T20:06:49.770Z,100494.73
2023-04-10T20:09:19.417Z,100491.07
2023-04-10T20:11:47.817Z,100494.69
2023-04-10T20:14:17.669Z,100495.77
2023-04-10T20:16:47.751Z,100496.85
2023-04-10T20:19:16.119Z,100494.97
2023-04-10T20:21:50.645Z,100501.67
2023-04-10T20:24:19.055Z,100503.70
2023-04-10T20:26:47.810Z,100507.15
2023-04-10T20:29:16.218Z,100505.27
2023-04-10T20:31:44.921Z,100510.52
2023-04-10T20:34:13.310Z,100506.55
2023-04-10T20:36:41.567Z,100513.34
2023-04-10T20:39:09.783Z,100512.52
2023-04-10T20:41:38.053Z,100510.27
2023-04-10T20:44:08.039Z,100512.27
2023-04-10T20:46:36.673Z,100512.77
2023-04-10T20:49:06.370Z,100516.17
2023-04-10T20:51:37.336Z,100515.05
2023-04-10T20:54:09.090Z,100512.94
2023-04-10T20:56:43.200Z,100509.95
2023-04-10T20:59:13.121Z,100504.73
2023-04-10T21:04:42.487Z,100502.21
2023-04-10T21:07:14.142Z,100504.14
2023-04-10T21:09:42.937Z,100504.11
2023-04-10T21:12:11.582Z,100506.85
2023-04-10T21:14:41.663Z,100512.45
2023-04-10T21:17:10.998Z,100511.83
2023-04-10T21:19:39.829Z,100510.59
2023-04-10T21:22:10.565Z,100512.83
2023-04-10T21:24:39.356Z,100512.73
2023-04-10T21:27:08.269Z,100510.27
2023-04-10T21:29:38.510Z,100509.14
2023-04-10T21:32:07.032Z,100504.45
2023-04-10T21:34:43.361Z,100502.10
2023-04-10T21:37:12.222Z,100498.50
2023-04-10T21:39:43.356Z,100494.52
2023-04-10T21:42:11.856Z,100496.41
2023-04-10T21:44:40.457Z,100497.80
2023-04-10T21:47:10.342Z,100495.52
2023-04-10T21:49:38.907Z,100500.58
2023-04-10T21:52:11.893Z,100500.48
2023-04-10T21:54:42.830Z,100505.00
2023-04-10T21:57:11.722Z,100501.36
2023-04-10T21:59:40.655Z,100498.64
2023-04-10T22:02:10.862Z,100495.65
2023-04-10T22:04:48.013Z,100491.02
2023-04-10T22:07:22.749Z,100486.97
2023-04-10T22:09:51.545Z,100480.13
2023-04-10T22:12:19.990Z,100477.72
2023-04-10T22:14:56.906Z,100473.06
2023-04-10T22:17:25.949Z,100468.64
2023-04-10T22:19:54.238Z,100464.78
2023-04-10T22:22:22.570Z,100456.87
2023-04-10T22:24:51.441Z,100458.39
2023-04-10T22:27:21.262Z,100458.05
2023-04-10T22:30:02.200Z,100459.61
2023-04-10T22:32:35.980Z,100461.06
2023-04-10T22:35:05.842Z,100462.86
2023-04-10T22:37:34.434Z,100462.08
2023-04-10T22:40:05.977Z,100458.66
2023-04-10T22:42:34.460Z,100458.27
2023-04-10T22:45:03.556Z,100457.74
2023-04-10T22:47:32.623Z,100452.02
2023-04-10T22:50:01.243Z,100452.61
2023-04-10T22:52:34.845Z,100450.30
2023-04-10T22:55:06.850Z,100450.60
2023-04-10T22:57:35.774Z,100455.28
2023-04-10T23:00:05.083Z,100449.26
2023-04-10T23:02:34.538Z,100448.92
2023-04-10T23:05:05.788Z,100448.41
2023-04-10T23:07:35.052Z,100448.35
2023-04-10T23:10:04.135Z,100446.23
2023-04-10T23:12:44.196Z,100445.77
2023-04-10T23:15:12.885Z,100443.66
2023-04-10T23:17:41.870Z,100439.17
2023-04-10T23:20:16.699Z,100442.13
2023-04-10T23:22:45.152Z,100445.77
2023-04-10T23:25:14.931Z,100442.61
2023-04-10T23:27:47.088Z,100437.52
2023-04-10T23:30:15.970Z,100433.45
2023-04-10T23:32:44.502Z,100428.17
2023-04-10T23:35:16.293Z,100426.27
2023-04-10T23:37:45.395Z,100417.42
2023-04-10T23:40:14.081Z,100419.81
2023-04-10T23:42:45.476Z,100420.78
2023-04-10T23:45:14.142Z,100421.09
2023-04-10T23:47:45.095Z,100418.77
2023-04-10T23:50:14.555Z,100418.67
2023-04-10T23:52:45.901Z,100417.31
2023-04-10T23:55:20.115Z,100413.98
2023-04-10T23:57:48.806Z,100415.48
